Main page
METAR-TAF:

METAR-TAF

Airports :

Dehradun Airport

Dehradun, India

latitude: 30-11-23N, longitude: 78-10-49E, elevation: 558 m

METAR: missing

Time: 13:35 (08:05 UTC)

Forecast

The report was made 9 hours and 5 minutes ago, at 23:00 UTC
Forecast valid from 20 at 00 UTC to 20 at 09 UTC
Wind kt from the North
Visibility: 1500 m
Few clouds at a height of 4000 ft
Scattered clouds at a height of 8000 ft
mist
Becoming
from 20 at 04 UTC to 20 at 06 UTC
Wind 6 kt from the East
Visibility: 3000 m
haze
Becoming
from 20 at 06 UTC to 20 at 09 UTC
Few clouds at a height of 3500 ft, Cumulonimbus.

TAF: VIDN 192300Z 2000/2009 00000KT 1500 BR FEW040 SCT080 BECMG 2004/2006 09006KT 3000 HZ BECMG 2006/2009 FEW035CB

Weather observations and forecasts of more than 4000 airports (METAR and TAF reports).

The available stations are represented by yellow and red dots on the map.

Hover mouse over dot to see the name of the station.

Then click to see weather observations and forecasts.

To change the map : click on the green buttons with a black cross to zoom in, on the green button with a dash to zoom out, or on the green arrows for adjacent maps.


METAR-TAF: